sensor_id;sensor_type;location;lat;lon;timestamp;pressure;altitude;pressure_sealevel;temperature;humidity
17230;BME280;8731;50.364;8.958;2023-02-26T00:02:46;99882.72;;;-0.99;77.38
17230;BME280;8731;50.364;8.958;2023-02-26T00:07:09;99890.81;;;-1.07;78.10
17230;BME280;8731;50.364;8.958;2023-02-26T00:11:33;99892.50;;;-1.00;78.38
17230;BME280;8731;50.364;8.958;2023-02-26T00:15:58;99894.31;;;-0.99;78.61
17230;BME280;8731;50.364;8.958;2023-02-26T00:20:21;99889.00;;;-1.08;79.87
17230;BME280;8731;50.364;8.958;2023-02-26T00:24:44;99897.72;;;-0.99;79.28
17230;BME280;8731;50.364;8.958;2023-02-26T00:29:08;99891.72;;;-1.06;79.75
17230;BME280;8731;50.364;8.958;2023-02-26T00:33:31;99901.00;;;-1.05;79.59
17230;BME280;8731;50.364;8.958;2023-02-26T00:37:58;99900.00;;;-1.00;80.40
17230;BME280;8731;50.364;8.958;2023-02-26T00:42:22;99905.00;;;-1.00;81.20
17230;BME280;8731;50.364;8.958;2023-02-26T00:46:49;99903.34;;;-0.94;80.92
17230;BME280;8731;50.364;8.958;2023-02-26T00:51:22;99913.22;;;-0.88;80.79
17230;BME280;8731;50.364;8.958;2023-02-26T00:55:51;99907.34;;;-0.89;80.80
17230;BME280;8731;50.364;8.958;2023-02-26T01:00:15;99918.19;;;-1.01;82.05
17230;BME280;8731;50.364;8.958;2023-02-26T01:04:41;99928.19;;;-1.01;82.81
17230;BME280;8731;50.364;8.958;2023-02-26T01:09:09;99926.72;;;-0.94;82.43
17230;BME280;8731;50.364;8.958;2023-02-26T01:13:37;99928.03;;;-0.90;82.26
17230;BME280;8731;50.364;8.958;2023-02-26T01:18:04;99926.91;;;-0.92;81.30
17230;BME280;8731;50.364;8.958;2023-02-26T01:22:36;99930.38;;;-0.97;81.25
17230;BME280;8731;50.364;8.958;2023-02-26T01:27:03;99936.47;;;-0.95;80.76
17230;BME280;8731;50.364;8.958;2023-02-26T01:31:34;99944.22;;;-0.94;82.40
17230;BME280;8731;50.364;8.958;2023-02-26T01:36:07;99957.00;;;-0.85;86.28
17230;BME280;8731;50.364;8.958;2023-02-26T01:45:55;99951.81;;;-0.74;90.19
17230;BME280;8731;50.364;8.958;2023-02-26T01:50:25;99955.16;;;-0.68;89.27
17230;BME280;8731;50.364;8.958;2023-02-26T01:54:49;99958.34;;;-0.69;89.54
17230;BME280;8731;50.364;8.958;2023-02-26T01:59:15;99955.34;;;-0.66;87.79
17230;BME280;8731;50.364;8.958;2023-02-26T02:03:44;99945.94;;;-0.62;86.48
17230;BME280;8731;50.364;8.958;2023-02-26T02:08:07;99948.63;;;-0.60;86.14
17230;BME280;8731;50.364;8.958;2023-02-26T02:12:34;99956.03;;;-0.67;85.87
17230;BME280;8731;50.364;8.958;2023-02-26T02:17:12;99955.84;;;-0.69;85.71
17230;BME280;8731;50.364;8.958;2023-02-26T02:21:47;99957.66;;;-0.68;84.50
17230;BME280;8731;50.364;8.958;2023-02-26T02:26:37;99972.91;;;-0.72;84.30
17230;BME280;8731;50.364;8.958;2023-02-26T02:31:27;99969.31;;;-0.74;83.95
17230;BME280;8731;50.364;8.958;2023-02-26T02:35:56;99979.25;;;-0.68;83.41
17230;BME280;8731;50.364;8.958;2023-02-26T02:40:27;99983.34;;;-0.69;83.40
17230;BME280;8731;50.364;8.958;2023-02-26T02:44:56;99985.41;;;-0.72;82.73
17230;BME280;8731;50.364;8.958;2023-02-26T02:49:24;99984.78;;;-0.76;82.55
17230;BME280;8731;50.364;8.958;2023-02-26T02:53:54;99981.69;;;-0.81;82.70
17230;BME280;8731;50.364;8.958;2023-02-26T02:58:27;99976.69;;;-0.81;82.42
17230;BME280;8731;50.364;8.958;2023-02-26T03:02:58;99989.50;;;-0.85;82.28
17230;BME280;8731;50.364;8.958;2023-02-26T03:07:29;99991.03;;;-0.98;82.19
17230;BME280;8731;50.364;8.958;2023-02-26T03:11:54;100007.03;;;-1.03;82.63
17230;BME280;8731;50.364;8.958;2023-02-26T03:16:28;100013.69;;;-1.09;83.52
17230;BME280;8731;50.364;8.958;2023-02-26T03:21:08;100021.53;;;-1.19;83.70
17230;BME280;8731;50.364;8.958;2023-02-26T03:25:42;100024.25;;;-1.17;83.57
17230;BME280;8731;50.364;8.958;2023-02-26T03:30:16;100024.13;;;-1.25;83.35
17230;BME280;8731;50.364;8.958;2023-02-26T03:34:46;100036.59;;;-1.25;83.56
17230;BME280;8731;50.364;8.958;2023-02-26T03:39:17;100032.78;;;-1.28;83.82
17230;BME280;8731;50.364;8.958;2023-02-26T03:43:48;100036.47;;;-1.32;83.71
17230;BME280;8731;50.364;8.958;2023-02-26T03:48:21;100045.75;;;-1.31;83.95
17230;BME280;8731;50.364;8.958;2023-02-26T03:52:51;100056.03;;;-1.35;83.62
17230;BME280;8731;50.364;8.958;2023-02-26T03:57:23;100061.03;;;-1.35;84.68
17230;BME280;8731;50.364;8.958;2023-02-26T04:02:04;100065.19;;;-1.41;85.68
17230;BME280;8731;50.364;8.958;2023-02-26T04:06:33;100077.94;;;-1.45;85.60
17230;BME280;8731;50.364;8.958;2023-02-26T04:10:58;100074.22;;;-1.36;85.21
17230;BME280;8731;50.364;8.958;2023-02-26T04:15:25;100082.81;;;-1.34;83.37
17230;BME280;8731;50.364;8.958;2023-02-26T04:19:49;100083.91;;;-1.32;83.70
17230;BME280;8731;50.364;8.958;2023-02-26T04:24:12;100083.50;;;-1.35;84.29
17230;BME280;8731;50.364;8.958;2023-02-26T04:28:34;100088.28;;;-1.36;84.00
17230;BME280;8731;50.364;8.958;2023-02-26T04:32:57;100095.09;;;-1.35;84.00
17230;BME280;8731;50.364;8.958;2023-02-26T04:37:21;100100.34;;;-1.39;84.20
17230;BME280;8731;50.364;8.958;2023-02-26T04:41:43;100101.94;;;-1.40;84.43
17230;BME280;8731;50.364;8.958;2023-02-26T04:46:06;100103.53;;;-1.40;84.03
17230;BME280;8731;50.364;8.958;2023-02-26T04:50:30;100111.03;;;-1.40;83.94
17230;BME280;8731;50.364;8.958;2023-02-26T04:54:53;100110.81;;;-1.42;84.65
17230;BME280;8731;50.364;8.958;2023-02-26T04:59:16;100120.38;;;-1.45;84.66
17230;BME280;8731;50.364;8.958;2023-02-26T05:03:39;100127.84;;;-1.45;85.44
17230;BME280;8731;50.364;8.958;2023-02-26T05:08:01;100131.91;;;-1.40;85.60
17230;BME280;8731;50.364;8.958;2023-02-26T05:12:25;100136.00;;;-1.40;85.14
17230;BME280;8731;50.364;8.958;2023-02-26T05:16:47;100140.03;;;-1.35;84.75
17230;BME280;8731;50.364;8.958;2023-02-26T05:21:10;100137.25;;;-1.31;84.42
17230;BME280;8731;50.364;8.958;2023-02-26T05:25:33;100140.44;;;-1.32;84.36
17230;BME280;8731;50.364;8.958;2023-02-26T05:29:57;100149.94;;;-1.30;84.70
17230;BME280;8731;50.364;8.958;2023-02-26T05:34:20;100154.88;;;-1.24;84.21
17230;BME280;8731;50.364;8.958;2023-02-26T05:38:42;100165.06;;;-1.23;84.21
17230;BME280;8731;50.364;8.958;2023-02-26T05:43:04;100159.44;;;-1.27;84.99
17230;BME280;8731;50.364;8.958;2023-02-26T05:47:28;100171.84;;;-1.21;83.95
17230;BME280;8731;50.364;8.958;2023-02-26T05:51:50;100177.97;;;-1.19;84.08
17230;BME280;8731;50.364;8.958;2023-02-26T05:56:12;100175.72;;;-1.18;83.01
17230;BME280;8731;50.364;8.958;2023-02-26T06:00:35;100177.97;;;-1.19;83.18
17230;BME280;8731;50.364;8.958;2023-02-26T06:04:59;100184.75;;;-1.18;84.35
17230;BME280;8731;50.364;8.958;2023-02-26T06:09:21;100189.75;;;-1.18;83.71
17230;BME280;8731;50.364;8.958;2023-02-26T06:13:43;100209.06;;;-1.17;83.56
17230;BME280;8731;50.364;8.958;2023-02-26T06:18:05;100214.72;;;-1.18;83.59
17230;BME280;8731;50.364;8.958;2023-02-26T06:22:29;100226.28;;;-1.13;83.34
17230;BME280;8731;50.364;8.958;2023-02-26T06:26:51;100232.59;;;-1.10;83.44
17230;BME280;8731;50.364;8.958;2023-02-26T06:31:14;100237.31;;;-1.06;83.21
17230;BME280;8731;50.364;8.958;2023-02-26T06:35:36;100240.84;;;-0.98;83.61
17230;BME280;8731;50.364;8.958;2023-02-26T06:40:00;100247.88;;;-0.96;83.97
17230;BME280;8731;50.364;8.958;2023-02-26T06:44:23;100252.34;;;-0.87;82.87
17230;BME280;8731;50.364;8.958;2023-02-26T06:48:45;100256.03;;;-0.73;83.07
17230;BME280;8731;50.364;8.958;2023-02-26T06:53:07;100265.00;;;-0.62;82.76
17230;BME280;8731;50.364;8.958;2023-02-26T06:57:31;100263.94;;;-0.51;82.90
17230;BME280;8731;50.364;8.958;2023-02-26T07:01:53;100282.31;;;-0.45;82.18
17230;BME280;8731;50.364;8.958;2023-02-26T07:06:16;100282.16;;;-0.34;82.17
17230;BME280;8731;50.364;8.958;2023-02-26T07:10:39;100298.56;;;-0.18;81.57
17230;BME280;8731;50.364;8.958;2023-02-26T07:15:04;100309.72;;;-0.03;80.59
17230;BME280;8731;50.364;8.958;2023-02-26T07:19:27;100302.19;;;0.15;80.34
17230;BME280;8731;50.364;8.958;2023-02-26T07:23:49;100312.13;;;0.52;79.59
17230;BME280;8731;50.364;8.958;2023-02-26T07:28:11;100319.66;;;0.65;77.81
17230;BME280;8731;50.364;8.958;2023-02-26T07:32:35;100323.09;;;0.90;78.03
17230;BME280;8731;50.364;8.958;2023-02-26T07:36:58;100337.75;;;1.00;76.92
17230;BME280;8731;50.364;8.958;2023-02-26T07:41:20;100344.13;;;1.62;75.32
17230;BME280;8731;50.364;8.958;2023-02-26T07:45:42;100330.75;;;1.81;75.09
17230;BME280;8731;50.364;8.958;2023-02-26T07:50:07;100341.22;;;2.04;74.33
17230;BME280;8731;50.364;8.958;2023-02-26T07:54:30;100356.66;;;1.74;72.74
17230;BME280;8731;50.364;8.958;2023-02-26T07:58:52;100354.66;;;1.72;72.32
17230;BME280;8731;50.364;8.958;2023-02-26T08:03:15;100358.66;;;1.77;71.46
17230;BME280;8731;50.364;8.958;2023-02-26T08:07:39;100360.97;;;1.75;72.24
17230;BME280;8731;50.364;8.958;2023-02-26T08:12:01;100369.66;;;1.97;72.20
17230;BME280;8731;50.364;8.958;2023-02-26T08:16:23;100380.91;;;2.26;72.61
17230;BME280;8731;50.364;8.958;2023-02-26T08:20:46;100380.19;;;3.06;74.91
17230;BME280;8731;50.364;8.958;2023-02-26T08:25:12;100373.47;;;2.73;71.01
17230;BME280;8731;50.364;8.958;2023-02-26T08:29:35;100389.06;;;2.70;68.76
17230;BME280;8731;50.364;8.958;2023-02-26T08:33:57;100393.56;;;2.93;69.59
17230;BME280;8731;50.364;8.958;2023-02-26T08:38:19;100380.41;;;3.35;65.93
17230;BME280;8731;50.364;8.958;2023-02-26T08:42:43;100385.50;;;3.83;64.72
17230;BME280;8731;50.364;8.958;2023-02-26T08:47:05;100388.19;;;4.47;66.89
17230;BME280;8731;50.364;8.958;2023-02-26T08:51:27;100405.69;;;4.67;64.62
17230;BME280;8731;50.364;8.958;2023-02-26T08:55:51;100390.38;;;5.15;64.20
17230;BME280;8731;50.364;8.958;2023-02-26T09:00:16;100404.97;;;4.97;60.55
17230;BME280;8731;50.364;8.958;2023-02-26T09:04:38;100410.41;;;4.92;58.66
17230;BME280;8731;50.364;8.958;2023-02-26T09:09:01;100408.78;;;4.79;56.13
17230;BME280;8731;50.364;8.958;2023-02-26T09:13:24;100419.97;;;5.23;57.53
17230;BME280;8731;50.364;8.958;2023-02-26T09:17:48;100407.69;;;6.36;59.02
17230;BME280;8731;50.364;8.958;2023-02-26T09:22:10;100410.44;;;5.86;54.49
17230;BME280;8731;50.364;8.958;2023-02-26T09:26:33;100432.88;;;5.69;52.75
17230;BME280;8731;50.364;8.958;2023-02-26T09:30:55;100438.34;;;6.17;54.16
17230;BME280;8731;50.364;8.958;2023-02-26T09:35:19;100442.34;;;6.74;51.42
17230;BME280;8731;50.364;8.958;2023-02-26T09:39:41;100451.75;;;6.98;51.60
17230;BME280;8731;50.364;8.958;2023-02-26T09:44:12;100449.38;;;6.77;52.47
17230;BME280;8731;50.364;8.958;2023-02-26T09:48:41;100457.59;;;5.43;51.03
17230;BME280;8731;50.364;8.958;2023-02-26T09:53:12;100469.47;;;5.66;48.77
17230;BME280;8731;50.364;8.958;2023-02-26T09:57:45;100476.91;;;5.14;50.02
17230;BME280;8731;50.364;8.958;2023-02-26T10:02:15;100479.06;;;6.34;52.40
17230;BME280;8731;50.364;8.958;2023-02-26T10:06:51;100485.59;;;5.45;51.58
17230;BME280;8731;50.364;8.958;2023-02-26T10:11:37;100488.06;;;4.88;53.23
17230;BME280;8731;50.364;8.958;2023-02-26T10:16:08;100492.50;;;4.69;52.47
17230;BME280;8731;50.364;8.958;2023-02-26T10:20:39;100497.09;;;4.38;52.99
17230;BME280;8731;50.364;8.958;2023-02-26T10:25:17;100505.94;;;5.04;54.51
17230;BME280;8731;50.364;8.958;2023-02-26T10:29:49;100517.78;;;4.83;52.81
17230;BME280;8731;50.364;8.958;2023-02-26T10:34:24;100506.28;;;5.78;54.06
17230;BME280;8731;50.364;8.958;2023-02-26T10:38:53;100505.56;;;5.72;52.97
17230;BME280;8731;50.364;8.958;2023-02-26T10:43:24;100510.69;;;6.30;52.18
17230;BME280;8731;50.364;8.958;2023-02-26T10:47:57;100525.31;;;6.33;51.65
17230;BME280;8731;50.364;8.958;2023-02-26T10:52:30;100508.09;;;6.82;51.03
17230;BME280;8731;50.364;8.958;2023-02-26T10:56:54;100527.72;;;6.10;52.66
17230;BME280;8731;50.364;8.958;2023-02-26T11:01:19;100539.66;;;5.61;49.16
17230;BME280;8731;50.364;8.958;2023-02-26T11:05:45;100531.72;;;6.52;51.30
17230;BME280;8731;50.364;8.958;2023-02-26T11:10:13;100548.53;;;5.93;50.38
17230;BME280;8731;50.364;8.958;2023-02-26T11:14:39;100539.47;;;5.81;51.28
17230;BME280;8731;50.364;8.958;2023-02-26T11:19:04;100541.22;;;6.25;50.05
17230;BME280;8731;50.364;8.958;2023-02-26T11:23:30;100538.44;;;5.93;50.30
17230;BME280;8731;50.364;8.958;2023-02-26T11:27:59;100536.34;;;6.26;51.06
17230;BME280;8731;50.364;8.958;2023-02-26T11:32:28;100544.19;;;5.21;49.75
17230;BME280;8731;50.364;8.958;2023-02-26T11:36:54;100544.72;;;5.75;51.06
17230;BME280;8731;50.364;8.958;2023-02-26T11:41:21;100545.25;;;5.37;51.47
17230;BME280;8731;50.364;8.958;2023-02-26T11:45:48;100546.34;;;5.25;51.44
17230;BME280;8731;50.364;8.958;2023-02-26T11:50:18;100539.84;;;5.41;52.78
17230;BME280;8731;50.364;8.958;2023-02-26T11:54:43;100551.06;;;4.67;51.42
17230;BME280;8731;50.364;8.958;2023-02-26T11:59:17;100539.63;;;4.49;51.30
17230;BME280;8731;50.364;8.958;2023-02-26T12:03:43;100548.25;;;4.03;52.10
17230;BME280;8731;50.364;8.958;2023-02-26T12:08:16;100548.13;;;3.88;52.14
17230;BME280;8731;50.364;8.958;2023-02-26T12:13:03;100537.44;;;4.38;53.26
17230;BME280;8731;50.364;8.958;2023-02-26T12:17:45;100547.28;;;3.95;52.94
17230;BME280;8731;50.364;8.958;2023-02-26T12:22:47;100546.44;;;4.43;54.73
17230;BME280;8731;50.364;8.958;2023-02-26T12:27:20;100545.81;;;4.24;53.63
17230;BME280;8731;50.364;8.958;2023-02-26T12:31:59;100557.41;;;4.36;53.58
17230;BME280;8731;50.364;8.958;2023-02-26T12:37:00;100552.94;;;4.07;54.63
17230;BME280;8731;50.364;8.958;2023-02-26T12:41:49;100556.53;;;4.43;53.28
17230;BME280;8731;50.364;8.958;2023-02-26T12:46:47;100555.34;;;4.60;51.67
17230;BME280;8731;50.364;8.958;2023-02-26T12:51:24;100554.47;;;4.60;52.08
17230;BME280;8731;50.364;8.958;2023-02-26T12:56:15;100559.56;;;4.81;52.50
17230;BME280;8731;50.364;8.958;2023-02-26T13:01:09;100561.19;;;4.40;51.46
17230;BME280;8731;50.364;8.958;2023-02-26T13:10:56;100562.38;;;4.63;49.75
17230;BME280;8731;50.364;8.958;2023-02-26T13:15:41;100557.63;;;4.93;50.97
17230;BME280;8731;50.364;8.958;2023-02-26T13:20:26;100559.59;;;4.96;50.63
17230;BME280;8731;50.364;8.958;2023-02-26T13:24:54;100570.84;;;5.40;51.04
17230;BME280;8731;50.364;8.958;2023-02-26T13:29:24;100552.28;;;5.61;51.41
17230;BME280;8731;50.364;8.958;2023-02-26T13:33:51;100556.72;;;4.92;50.12
17230;BME280;8731;50.364;8.958;2023-02-26T13:38:21;100555.69;;;5.12;50.63
17230;BME280;8731;50.364;8.958;2023-02-26T13:42:56;100551.53;;;5.19;50.75
17230;BME280;8731;50.364;8.958;2023-02-26T13:47:36;100555.91;;;5.49;51.29
17230;BME280;8731;50.364;8.958;2023-02-26T13:52:22;100557.34;;;5.54;52.04
17230;BME280;8731;50.364;8.958;2023-02-26T13:56:53;100556.31;;;4.75;51.00
17230;BME280;8731;50.364;8.958;2023-02-26T14:01:31;100565.06;;;5.06;51.33
17230;BME280;8731;50.364;8.958;2023-02-26T14:06:07;100564.69;;;5.03;50.14
17230;BME280;8731;50.364;8.958;2023-02-26T14:10:44;100569.38;;;5.14;51.37
17230;BME280;8731;50.364;8.958;2023-02-26T14:15:25;100567.25;;;5.38;50.80
17230;BME280;8731;50.364;8.958;2023-02-26T14:20:19;100564.38;;;5.28;49.05
17230;BME280;8731;50.364;8.958;2023-02-26T14:24:52;100576.41;;;5.02;48.53
17230;BME280;8731;50.364;8.958;2023-02-26T14:29:24;100585.09;;;5.26;51.80
17230;BME280;8731;50.364;8.958;2023-02-26T14:34:12;100575.38;;;5.29;51.67
17230;BME280;8731;50.364;8.958;2023-02-26T14:38:37;100573.56;;;5.42;52.24
17230;BME280;8731;50.364;8.958;2023-02-26T14:43:05;100576.75;;;4.98;51.15
17230;BME280;8731;50.364;8.958;2023-02-26T14:47:31;100580.06;;;4.70;51.79
17230;BME280;8731;50.364;8.958;2023-02-26T14:52:05;100590.19;;;4.77;50.56
17230;BME280;8731;50.364;8.958;2023-02-26T14:56:51;100581.63;;;5.18;52.24
17230;BME280;8731;50.364;8.958;2023-02-26T15:01:43;100587.88;;;4.93;51.83
17230;BME280;8731;50.364;8.958;2023-02-26T15:06:20;100600.28;;;4.43;49.94
17230;BME280;8731;50.364;8.958;2023-02-26T15:11:04;100600.91;;;4.55;51.48
17230;BME280;8731;50.364;8.958;2023-02-26T15:15:48;100605.00;;;4.20;49.65
17230;BME280;8731;50.364;8.958;2023-02-26T15:20:23;100608.13;;;4.59;50.87
17230;BME280;8731;50.364;8.958;2023-02-26T15:24:53;100604.88;;;4.60;51.98
17230;BME280;8731;50.364;8.958;2023-02-26T15:29:16;100609.22;;;4.27;49.24
17230;BME280;8731;50.364;8.958;2023-02-26T15:33:41;100610.50;;;4.30;51.11
17230;BME280;8731;50.364;8.958;2023-02-26T15:38:07;100621.03;;;4.21;51.79
17230;BME280;8731;50.364;8.958;2023-02-26T15:42:34;100623.44;;;4.26;52.66
17230;BME280;8731;50.364;8.958;2023-02-26T15:47:01;100618.69;;;4.22;52.52
17230;BME280;8731;50.364;8.958;2023-02-26T15:51:25;100630.34;;;4.15;51.56
17230;BME280;8731;50.364;8.958;2023-02-26T15:55:52;100631.50;;;3.77;52.30
17230;BME280;8731;50.364;8.958;2023-02-26T16:00:20;100633.38;;;4.05;53.02
17230;BME280;8731;50.364;8.958;2023-02-26T16:04:45;100634.94;;;3.58;51.66
17230;BME280;8731;50.364;8.958;2023-02-26T16:09:15;100646.69;;;3.64;52.51
17230;BME280;8731;50.364;8.958;2023-02-26T16:13:41;100658.31;;;3.57;52.91
17230;BME280;8731;50.364;8.958;2023-02-26T16:18:07;100658.88;;;3.61;52.19
17230;BME280;8731;50.364;8.958;2023-02-26T16:22:36;100668.09;;;3.48;51.55
17230;BME280;8731;50.364;8.958;2023-02-26T16:27:04;100667.41;;;3.17;51.54
17230;BME280;8731;50.364;8.958;2023-02-26T16:31:32;100673.22;;;3.23;51.48
17230;BME280;8731;50.364;8.958;2023-02-26T16:36:03;100681.16;;;3.26;52.81
17230;BME280;8731;50.364;8.958;2023-02-26T16:40:34;100691.31;;;3.33;52.84
17230;BME280;8731;50.364;8.958;2023-02-26T16:45:01;100704.50;;;3.25;52.68
17230;BME280;8731;50.364;8.958;2023-02-26T16:49:41;100702.09;;;3.32;53.58
17230;BME280;8731;50.364;8.958;2023-02-26T16:54:06;100713.66;;;3.37;54.14
17230;BME280;8731;50.364;8.958;2023-02-26T16:58:34;100710.63;;;3.27;54.11
17230;BME280;8731;50.364;8.958;2023-02-26T17:02:57;100719.91;;;3.21;53.69
17230;BME280;8731;50.364;8.958;2023-02-26T17:07:29;100727.38;;;3.14;52.77
17230;BME280;8731;50.364;8.958;2023-02-26T17:12:10;100731.78;;;3.22;52.66
17230;BME280;8731;50.364;8.958;2023-02-26T17:16:34;100747.19;;;3.05;52.59
17230;BME280;8731;50.364;8.958;2023-02-26T17:20:57;100757.69;;;3.08;52.05
17230;BME280;8731;50.364;8.958;2023-02-26T17:25:25;100759.75;;;3.05;52.48
17230;BME280;8731;50.364;8.958;2023-02-26T17:29:51;100761.97;;;3.22;52.65
17230;BME280;8731;50.364;8.958;2023-02-26T17:34:13;100765.91;;;3.20;53.28
17230;BME280;8731;50.364;8.958;2023-02-26T17:38:36;100759.88;;;3.12;53.54
17230;BME280;8731;50.364;8.958;2023-02-26T17:42:59;100772.78;;;3.08;53.41
17230;BME280;8731;50.364;8.958;2023-02-26T17:47:25;100772.53;;;3.06;53.36
17230;BME280;8731;50.364;8.958;2023-02-26T17:51:47;100785.44;;;3.02;53.55
17230;BME280;8731;50.364;8.958;2023-02-26T17:56:16;100779.69;;;4.07;63.52
17230;BME280;8731;50.364;8.958;2023-02-26T18:00:44;100785.13;;;3.06;55.61
17230;BME280;8731;50.364;8.958;2023-02-26T18:05:09;100793.66;;;3.01;55.31
17230;BME280;8731;50.364;8.958;2023-02-26T18:09:32;100798.00;;;2.90;55.71
17230;BME280;8731;50.364;8.958;2023-02-26T18:13:54;100813.56;;;2.74;55.42
17230;BME280;8731;50.364;8.958;2023-02-26T18:18:19;100821.63;;;2.72;55.41
17230;BME280;8731;50.364;8.958;2023-02-26T18:22:42;100813.06;;;2.77;54.19
17230;BME280;8731;50.364;8.958;2023-02-26T18:27:11;100822.91;;;2.63;55.14
17230;BME280;8731;50.364;8.958;2023-02-26T18:31:34;100826.53;;;2.65;54.52
17230;BME280;8731;50.364;8.958;2023-02-26T18:35:58;100821.72;;;2.66;55.16
17230;BME280;8731;50.364;8.958;2023-02-26T18:40:22;100825.13;;;2.67;55.68
17230;BME280;8731;50.364;8.958;2023-02-26T18:44:46;100825.69;;;2.59;55.57
17230;BME280;8731;50.364;8.958;2023-02-26T18:49:15;100826.19;;;2.56;55.35
17230;BME280;8731;50.364;8.958;2023-02-26T18:53:40;100835.13;;;2.41;54.88
17230;BME280;8731;50.364;8.958;2023-02-26T18:58:03;100831.91;;;2.42;55.18
17230;BME280;8731;50.364;8.958;2023-02-26T19:02:26;100834.63;;;2.44;55.64
17230;BME280;8731;50.364;8.958;2023-02-26T19:06:48;100839.44;;;2.42;55.23
17230;BME280;8731;50.364;8.958;2023-02-26T19:11:12;100838.47;;;2.29;56.48
17230;BME280;8731;50.364;8.958;2023-02-26T19:15:34;100845.53;;;2.32;56.03
17230;BME280;8731;50.364;8.958;2023-02-26T19:19:57;100849.81;;;2.20;56.25
17230;BME280;8731;50.364;8.958;2023-02-26T19:24:19;100858.75;;;2.18;56.50
17230;BME280;8731;50.364;8.958;2023-02-26T19:28:42;100854.44;;;1.99;56.84
17230;BME280;8731;50.364;8.958;2023-02-26T19:33:06;100858.06;;;2.01;56.53
17230;BME280;8731;50.364;8.958;2023-02-26T19:37:28;100864.47;;;1.99;56.64
17230;BME280;8731;50.364;8.958;2023-02-26T19:41:51;100874.81;;;1.95;56.83
17230;BME280;8731;50.364;8.958;2023-02-26T19:46:15;100881.72;;;1.90;58.12
17230;BME280;8731;50.364;8.958;2023-02-26T19:50:37;100886.41;;;1.76;57.81
17230;BME280;8731;50.364;8.958;2023-02-26T19:54:59;100899.47;;;1.73;57.64
17230;BME280;8731;50.364;8.958;2023-02-26T19:59:22;100899.31;;;1.66;57.85
17230;BME280;8731;50.364;8.958;2023-02-26T20:03:45;100906.53;;;1.52;59.13
17230;BME280;8731;50.364;8.958;2023-02-26T20:08:08;100910.91;;;1.47;59.45
17230;BME280;8731;50.364;8.958;2023-02-26T20:12:30;100921.25;;;1.38;59.75
17230;BME280;8731;50.364;8.958;2023-02-26T20:16:52;100922.22;;;1.33;59.97
17230;BME280;8731;50.364;8.958;2023-02-26T20:21:16;100929.72;;;1.33;59.96
17230;BME280;8731;50.364;8.958;2023-02-26T20:25:38;100932.09;;;1.26;60.41
17230;BME280;8731;50.364;8.958;2023-02-26T20:30:04;100941.97;;;1.18;59.99
17230;BME280;8731;50.364;8.958;2023-02-26T20:34:27;100940.38;;;1.13;61.38
17230;BME280;8731;50.364;8.958;2023-02-26T20:38:51;100942.47;;;1.10;60.65
17230;BME280;8731;50.364;8.958;2023-02-26T20:43:13;100950.88;;;1.11;60.62
17230;BME280;8731;50.364;8.958;2023-02-26T20:47:36;100956.84;;;1.06;60.96
17230;BME280;8731;50.364;8.958;2023-02-26T20:51:58;100962.13;;;1.02;61.13
17230;BME280;8731;50.364;8.958;2023-02-26T20:56:22;100965.81;;;0.92;61.90
17230;BME280;8731;50.364;8.958;2023-02-26T21:00:44;100962.66;;;0.88;62.45
17230;BME280;8731;50.364;8.958;2023-02-26T21:05:07;100972.25;;;0.85;62.00
17230;BME280;8731;50.364;8.958;2023-02-26T21:09:31;100968.72;;;0.72;62.92
17230;BME280;8731;50.364;8.958;2023-02-26T21:13:54;100984.66;;;0.67;62.94
17230;BME280;8731;50.364;8.958;2023-02-26T21:18:17;100986.50;;;0.62;63.28
17230;BME280;8731;50.364;8.958;2023-02-26T21:22:39;100981.53;;;0.56;63.63
17230;BME280;8731;50.364;8.958;2023-02-26T21:27:02;100978.81;;;0.55;62.99
17230;BME280;8731;50.364;8.958;2023-02-26T21:31:26;100976.13;;;0.42;63.48
17230;BME280;8731;50.364;8.958;2023-02-26T21:35:49;100984.84;;;0.22;65.21
17230;BME280;8731;50.364;8.958;2023-02-26T21:40:13;100983.06;;;0.15;65.55
17230;BME280;8731;50.364;8.958;2023-02-26T21:44:35;100981.72;;;0.12;65.44
17230;BME280;8731;50.364;8.958;2023-02-26T21:48:59;100982.19;;;-0.02;66.63
17230;BME280;8731;50.364;8.958;2023-02-26T21:53:22;100981.75;;;-0.11;66.15
17230;BME280;8731;50.364;8.958;2023-02-26T21:57:44;100986.34;;;-0.19;66.76
17230;BME280;8731;50.364;8.958;2023-02-26T22:02:08;100988.59;;;-0.26;66.86
17230;BME280;8731;50.364;8.958;2023-02-26T22:06:33;100991.38;;;-0.47;68.16
17230;BME280;8731;50.364;8.958;2023-02-26T22:10:56;100989.31;;;-0.50;68.54
17230;BME280;8731;50.364;8.958;2023-02-26T22:15:18;100990.91;;;-0.56;69.35
17230;BME280;8731;50.364;8.958;2023-02-26T22:19:40;100995.22;;;-0.77;69.03
17230;BME280;8731;50.364;8.958;2023-02-26T22:24:05;100988.19;;;-0.91;69.42
17230;BME280;8731;50.364;8.958;2023-02-26T22:28:28;100991.78;;;-1.00;70.07
17230;BME280;8731;50.364;8.958;2023-02-26T22:32:50;100996.09;;;-1.05;70.24
17230;BME280;8731;50.364;8.958;2023-02-26T22:37:13;101005.41;;;-1.04;69.72
17230;BME280;8731;50.364;8.958;2023-02-26T22:41:36;101002.22;;;-1.08;69.92
17230;BME280;8731;50.364;8.958;2023-02-26T22:45:58;100994.69;;;-1.19;70.38
17230;BME280;8731;50.364;8.958;2023-02-26T22:50:21;100996.28;;;-1.26;70.79
17230;BME280;8731;50.364;8.958;2023-02-26T22:54:44;101005.38;;;-1.20;70.78
17230;BME280;8731;50.364;8.958;2023-02-26T22:59:08;101002.69;;;-1.16;69.46
17230;BME280;8731;50.364;8.958;2023-02-26T23:03:30;100992.69;;;-1.16;69.78
17230;BME280;8731;50.364;8.958;2023-02-26T23:07:54;100999.69;;;-1.25;70.03
17230;BME280;8731;50.364;8.958;2023-02-26T23:12:16;101010.34;;;-1.32;72.07
17230;BME280;8731;50.364;8.958;2023-02-26T23:16:40;101008.28;;;-1.40;71.77
17230;BME280;8731;50.364;8.958;2023-02-26T23:21:04;101007.38;;;-1.40;71.92
17230;BME280;8731;50.364;8.958;2023-02-26T23:25:28;101000.56;;;-1.36;72.07
17230;BME280;8731;50.364;8.958;2023-02-26T23:29:50;100994.91;;;-1.35;72.15
17230;BME280;8731;50.364;8.958;2023-02-26T23:34:14;101006.69;;;-1.39;71.90
17230;BME280;8731;50.364;8.958;2023-02-26T23:38:36;101007.06;;;-1.64;73.42
17230;BME280;8731;50.364;8.958;2023-02-26T23:42:58;101007.06;;;-1.64;73.48
17230;BME280;8731;50.364;8.958;2023-02-26T23:47:23;101003.38;;;-1.66;72.77
17230;BME280;8731;50.364;8.958;2023-02-26T23:52:03;101003.38;;;-1.72;73.46
17230;BME280;8731;50.364;8.958;2023-02-26T23:56:26;101013.56;;;-1.76;73.06
